createdAt,value
2023-03-06T00:00:45.951Z,8.73
2023-03-06T00:03:12.438Z,8.90
2023-03-06T00:05:39.280Z,7.57
2023-03-06T00:08:06.431Z,7.73
2023-03-06T00:10:33.282Z,7.80
2023-03-06T00:13:06.394Z,7.03
2023-03-06T00:15:32.910Z,8.10
2023-03-06T00:17:59.913Z,7.60
2023-03-06T00:20:27.101Z,8.07
2023-03-06T00:22:55.951Z,7.33
2023-03-06T00:25:23.317Z,7.03
2023-03-06T00:27:50.086Z,7.13
2023-03-06T00:30:20.361Z,5.77
2023-03-06T00:32:47.328Z,5.93
2023-03-06T00:35:14.571Z,4.97
2023-03-06T00:37:41.579Z,5.40
2023-03-06T00:40:11.859Z,5.00
2023-03-06T00:42:38.388Z,4.60
2023-03-06T00:45:05.326Z,4.43
2023-03-06T00:47:32.068Z,4.43
2023-03-06T00:49:58.725Z,4.40
2023-03-06T00:52:25.220Z,3.50
2023-03-06T00:54:51.823Z,4.80
2023-03-06T00:57:18.597Z,3.93
2023-03-06T00:59:46.062Z,3.63
2023-03-06T01:02:12.606Z,3.53
2023-03-06T01:04:39.703Z,3.57
2023-03-06T01:07:06.269Z,3.63
2023-03-06T01:09:32.839Z,3.33
2023-03-06T01:11:59.373Z,3.10
2023-03-06T01:14:26.426Z,3.00
2023-03-06T01:16:52.928Z,2.93
2023-03-06T01:19:19.414Z,3.00
2023-03-06T01:21:46.078Z,3.37
2023-03-06T01:24:12.587Z,3.00
2023-03-06T01:26:39.205Z,2.90
2023-03-06T01:29:06.455Z,3.27
2023-03-06T01:31:33.409Z,3.30
2023-03-06T01:34:00.149Z,3.10
2023-03-06T01:36:26.580Z,3.47
2023-03-06T01:38:53.250Z,3.30
2023-03-06T01:41:21.283Z,2.30
2023-03-06T01:43:49.136Z,2.27
2023-03-06T01:46:44.468Z,3.10
2023-03-06T01:49:21.829Z,3.73
2023-03-06T01:51:52.609Z,3.97
2023-03-06T01:54:33.148Z,3.77
2023-03-06T01:57:05.657Z,4.80
2023-03-06T01:59:34.765Z,5.07
2023-03-06T02:02:03.583Z,5.07
2023-03-06T02:04:31.636Z,3.83
2023-03-06T02:07:00.544Z,4.90
2023-03-06T02:09:30.273Z,4.83
2023-03-06T02:11:57.108Z,4.70
2023-03-06T02:14:24.072Z,4.63
2023-03-06T02:16:51.355Z,3.80
2023-03-06T02:19:29.095Z,4.87
2023-03-06T02:21:55.858Z,5.67
2023-03-06T02:24:33.148Z,5.37
2023-03-06T02:27:02.824Z,5.43
2023-03-06T02:29:30.845Z,6.60
2023-03-06T02:31:57.774Z,7.00
2023-03-06T02:34:24.223Z,7.60
2023-03-06T02:36:54.008Z,7.83
2023-03-06T02:39:25.798Z,7.13
2023-03-06T02:41:52.480Z,7.83
2023-03-06T02:44:19.096Z,8.27
2023-03-06T02:46:45.664Z,8.20
2023-03-06T02:49:12.111Z,8.33
2023-03-06T02:51:38.660Z,9.90
2023-03-06T02:54:05.167Z,9.30
2023-03-06T02:56:31.625Z,10.33
2023-03-06T02:58:58.405Z,9.93
2023-03-06T03:01:24.942Z,10.63
2023-03-06T03:03:51.510Z,9.97
2023-03-06T03:06:18.052Z,10.73
2023-03-06T03:08:44.728Z,9.97
2023-03-06T03:11:12.247Z,9.90
2023-03-06T03:13:39.034Z,9.40
2023-03-06T03:16:08.158Z,10.90
2023-03-06T03:18:35.584Z,10.73
2023-03-06T03:21:06.620Z,10.63
2023-03-06T03:23:33.101Z,10.40
2023-03-06T03:26:15.151Z,9.97
2023-03-06T03:28:41.647Z,9.20
2023-03-06T03:31:09.758Z,10.93
2023-03-06T03:33:36.843Z,10.53
2023-03-06T03:36:05.461Z,9.87
2023-03-06T03:38:32.642Z,10.23
2023-03-06T03:41:01.055Z,9.13
2023-03-06T03:43:27.926Z,8.97
2023-03-06T03:45:54.547Z,9.57
2023-03-06T03:48:21.033Z,9.53
2023-03-06T03:50:47.616Z,8.73
2023-03-06T03:53:14.925Z,8.07
2023-03-06T03:55:41.456Z,7.83
2023-03-06T03:58:07.915Z,7.27
2023-03-06T04:00:34.481Z,8.90
2023-03-06T04:03:00.963Z,8.43
2023-03-06T04:05:27.536Z,7.63
2023-03-06T04:07:53.991Z,7.17
2023-03-06T04:10:20.841Z,7.20
2023-03-06T04:12:47.297Z,7.40
2023-03-06T04:15:13.818Z,6.63
2023-03-06T04:17:40.359Z,10.20
2023-03-06T04:20:07.551Z,8.57
2023-03-06T04:22:34.060Z,18.63
2023-03-06T04:25:01.122Z,8.23
2023-03-06T04:27:27.704Z,7.10
2023-03-06T04:29:56.479Z,6.57
2023-03-06T04:32:24.227Z,7.23
2023-03-06T04:34:51.061Z,6.37
2023-03-06T04:37:23.895Z,7.10
2023-03-06T04:39:50.812Z,6.30
2023-03-06T04:42:17.432Z,5.90
2023-03-06T04:44:44.432Z,5.77
2023-03-06T04:47:11.365Z,8.27
2023-03-06T04:49:38.007Z,10.27
2023-03-06T04:52:05.166Z,7.63
2023-03-06T04:54:32.278Z,5.87
2023-03-06T04:56:58.921Z,4.83
2023-03-06T04:59:25.549Z,5.00
2023-03-06T05:01:52.146Z,4.70
2023-03-06T05:04:18.722Z,4.73
2023-03-06T05:06:45.305Z,4.60
2023-03-06T05:09:11.840Z,4.73
2023-03-06T05:11:38.356Z,4.10
2023-03-06T05:14:04.809Z,4.27
2023-03-06T05:16:31.589Z,3.33
2023-03-06T05:18:58.084Z,2.90
2023-03-06T05:21:24.529Z,3.40
2023-03-06T05:23:51.033Z,2.80
2023-03-06T05:26:17.621Z,2.70
2023-03-06T05:28:44.210Z,2.77
2023-03-06T05:31:10.799Z,3.13
2023-03-06T05:33:37.423Z,2.47
2023-03-06T05:36:04.416Z,3.17
2023-03-06T05:38:32.407Z,2.87
2023-03-06T05:40:59.060Z,3.10
2023-03-06T05:43:25.584Z,3.07
2023-03-06T05:46:00.263Z,3.77
2023-03-06T05:48:26.876Z,3.50
2023-03-06T05:50:59.595Z,4.47
2023-03-06T05:53:26.952Z,4.60
2023-03-06T05:56:09.068Z,5.83
2023-03-06T05:58:36.509Z,5.70
2023-03-06T06:01:30.328Z,5.83
2023-03-06T06:03:56.824Z,7.00
2023-03-06T06:06:23.385Z,7.13
2023-03-06T06:08:49.962Z,8.40
2023-03-06T06:11:18.391Z,6.97
2023-03-06T06:13:44.878Z,8.10
2023-03-06T06:16:15.821Z,8.10
2023-03-06T06:18:43.201Z,8.20
2023-03-06T06:21:11.525Z,7.87
2023-03-06T06:23:38.073Z,8.10
2023-03-06T06:26:06.794Z,9.60
2023-03-06T06:28:35.401Z,8.97
2023-03-06T06:31:08.457Z,15.07
2023-03-06T06:33:35.022Z,9.60
2023-03-06T06:36:01.517Z,9.13
2023-03-06T06:38:28.100Z,7.87
2023-03-06T06:41:27.151Z,7.43
2023-03-06T06:43:41.100Z,6.53
2023-03-06T06:46:36.472Z,7.57
2023-03-06T06:48:56.996Z,6.63
2023-03-06T06:51:23.593Z,6.80
2023-03-06T06:53:53.379Z,7.97
2023-03-06T06:56:19.855Z,7.30
2023-03-06T06:58:46.306Z,7.27
2023-03-06T07:01:13.800Z,7.00
2023-03-06T07:03:40.867Z,7.27
2023-03-06T07:06:07.857Z,7.70
2023-03-06T07:08:34.925Z,6.73
2023-03-06T07:11:10.606Z,6.93
2023-03-06T07:13:37.140Z,6.93
2023-03-06T07:16:03.960Z,6.17
2023-03-06T07:18:30.793Z,6.13
2023-03-06T07:21:00.372Z,6.40
2023-03-06T07:23:27.869Z,6.97
2023-03-06T07:25:55.283Z,7.07
2023-03-06T07:28:21.952Z,6.83
2023-03-06T07:30:48.567Z,7.63
2023-03-06T07:33:16.409Z,6.67
2023-03-06T07:35:43.457Z,7.00
2023-03-06T07:38:10.265Z,6.20
2023-03-06T07:40:38.923Z,7.37
2023-03-06T07:43:18.861Z,6.77
2023-03-06T07:45:47.055Z,5.40
2023-03-06T07:48:14.884Z,6.00
2023-03-06T07:50:42.071Z,6.07
2023-03-06T07:53:10.826Z,6.27
2023-03-06T07:55:40.577Z,6.97
2023-03-06T07:58:07.123Z,6.80
2023-03-06T08:00:33.592Z,7.03
2023-03-06T08:03:00.120Z,7.87
2023-03-06T08:05:26.730Z,7.83
2023-03-06T08:07:53.338Z,7.90
2023-03-06T08:10:20.058Z,8.70
2023-03-06T08:12:46.639Z,8.30
2023-03-06T08:15:13.301Z,10.00
2023-03-06T08:17:40.385Z,9.03
2023-03-06T08:20:08.010Z,10.10
2023-03-06T08:22:34.889Z,8.93
2023-03-06T08:25:01.986Z,9.20
2023-03-06T08:27:28.602Z,9.03
2023-03-06T08:29:55.058Z,9.10
2023-03-06T08:32:21.685Z,9.13
2023-03-06T08:34:48.325Z,8.53
2023-03-06T08:37:14.818Z,8.70
2023-03-06T08:39:41.313Z,8.80
2023-03-06T08:42:09.879Z,8.83
2023-03-06T08:44:36.708Z,8.53
2023-03-06T08:47:03.916Z,8.53
2023-03-06T08:49:30.692Z,8.47
2023-03-06T08:51:57.311Z,8.53
2023-03-06T08:54:24.100Z,9.07
2023-03-06T08:56:50.675Z,8.53
2023-03-06T08:59:17.191Z,7.97
2023-03-06T09:01:45.249Z,8.10
2023-03-06T09:04:11.987Z,7.60
2023-03-06T09:06:42.320Z,7.50
2023-03-06T09:09:09.562Z,8.40
2023-03-06T09:11:36.705Z,7.43
2023-03-06T09:14:03.602Z,7.63
2023-03-06T09:16:30.186Z,7.10
2023-03-06T09:18:57.971Z,8.30
2023-03-06T09:21:26.245Z,7.47
2023-03-06T09:23:52.748Z,6.93
2023-03-06T09:26:19.437Z,7.33
2023-03-06T09:28:46.367Z,6.33
2023-03-06T09:31:18.292Z,5.60
2023-03-06T09:33:45.491Z,4.83
2023-03-06T09:36:17.678Z,4.90
2023-03-06T09:38:45.929Z,3.67
2023-03-06T09:41:41.642Z,3.57
2023-03-06T09:44:15.922Z,4.80
2023-03-06T09:47:03.146Z,4.03
2023-03-06T09:49:51.723Z,4.03
2023-03-06T09:52:36.654Z,4.30
2023-03-06T09:55:19.493Z,4.33
2023-03-06T09:58:01.372Z,4.13
2023-03-06T10:00:41.935Z,4.00
2023-03-06T10:03:22.281Z,4.60
2023-03-06T10:06:07.042Z,4.57
2023-03-06T10:08:43.854Z,4.93
2023-03-06T10:11:13.407Z,4.67
2023-03-06T10:13:46.229Z,4.80
2023-03-06T10:16:32.678Z,5.57
2023-03-06T10:19:07.329Z,6.00
2023-03-06T10:21:54.850Z,5.80
2023-03-06T10:24:31.995Z,5.13
2023-03-06T10:27:10.660Z,6.13
2023-03-06T12:49:12.305Z,1.03
2023-03-06T12:51:40.312Z,1.20
